Time;durP1;ratioP1;P1;durP2;ratioP2;P2;SDS_P1;SDS_P2;PMS_P1;PMS_P2;Temp;Humidity;BMP_temperature;BMP_pressure;BME280_temperature;BME280_humidity;BME280_pressure;Samples;Min_cycle;Max_cycle;Signal;HPM_P1;HPM_P2
2022/06/28 00:02:07;;;;;;;1.55;0.00;;;14.90;99.90;;;;;;5095951;28;20027;-87
2022/06/28 00:04:33;;;;;;;5.13;0.20;;;16.90;99.90;;;;;;5077634;28;20549;-87
2022/06/28 00:06:59;;;;;;;1.13;0.10;;;13.80;99.90;;;;;;5077772;28;20107;-88
2022/06/28 00:09:25;;;;;;;2.97;0.28;;;13.80;99.90;;;;;;5077904;28;20024;-88
2022/06/28 00:11:51;;;;;;;2.80;0.22;;;14.60;99.90;;;;;;5077763;28;20081;-87
2022/06/28 00:17:01;;;;;;;1.90;0.00;;;13.50;99.90;;;;;;5097155;28;20039;-87
2022/06/28 00:19:28;;;;;;;4.32;0.60;;;13.60;99.90;;;;;;5077600;28;20107;-87
2022/06/28 00:21:54;;;;;;;1.27;0.15;;;13.50;99.90;;;;;;5077314;28;20046;-88
2022/06/28 00:24:20;;;;;;;4.82;0.10;;;13.40;99.90;;;;;;5076730;28;20096;-88
2022/06/28 00:26:46;;;;;;;1.67;0.00;;;;;;;;;;5077038;28;20047;-88
2022/06/28 00:29:12;;;;;;;3.05;0.10;;;;;;;;;;5076786;28;20172;-87
2022/06/28 00:31:38;;;;;;;3.58;0.50;;;13.40;99.90;;;;;;5077151;28;20020;-88
2022/06/28 00:34:04;;;;;;;6.25;0.10;;;13.40;99.90;;;;;;5076647;28;20068;-88
2022/06/28 00:36:30;;;;;;;5.78;0.45;;;13.50;99.90;;;;;;5076786;28;20063;-87
2022/06/28 00:38:56;;;;;;;3.65;0.47;;;15.60;99.90;;;;;;5095085;28;20100;-87
2022/06/28 00:41:22;;;;;;;5.38;0.28;;;13.50;99.90;;;;;;5076950;28;20031;-87
2022/06/28 00:43:47;;;;;;;2.28;0.10;;;14.80;99.90;;;;;;5076250;28;20029;-88
2022/06/28 00:46:14;;;;;;;0.95;0.00;;;15.40;99.90;;;;;;5076854;28;20016;-87
2022/06/28 00:48:39;;;;;;;2.85;0.43;;;13.30;99.90;;;;;;5076294;28;20020;-88
2022/06/28 00:51:07;;;;;;;2.30;0.00;;;16.00;99.90;;;;;;5094704;28;20024;-88
2022/06/28 00:53:33;;;;;;;1.45;0.00;;;16.10;99.90;;;;;;5076231;28;20020;-88
2022/06/28 00:55:58;;;;;;;3.65;0.40;;;13.50;99.90;;;;;;5076552;28;20073;-88
2022/06/28 00:58:24;;;;;;;0.75;0.28;;;13.40;99.90;;;;;;5076867;28;20031;-88
2022/06/28 01:00:50;;;;;;;2.33;0.10;;;13.40;99.90;;;;;;5076860;28;20119;-88
2022/06/28 01:03:21;;;;;;;2.95;0.10;;;13.40;99.90;;;;;;5077354;28;20111;-87
2022/06/28 01:05:48;;;;;;;2.28;0.30;;;13.40;99.90;;;;;;5076315;28;20023;-88
2022/06/28 01:08:14;;;;;;;2.20;0.00;;;13.40;99.90;;;;;;5077331;28;20054;-87
2022/06/28 01:10:40;;;;;;;1.35;0.00;;;13.40;99.90;;;;;;5076726;28;20024;-87
2022/06/28 01:13:07;;;;;;;4.68;0.43;;;13.40;99.90;;;;;;5076695;28;20438;-88
2022/06/28 01:15:33;;;;;;;2.28;0.22;;;13.40;99.90;;;;;;5076643;28;20084;-87
2022/06/28 01:18:00;;;;;;;3.92;0.00;;;13.50;99.90;;;;;;5076533;28;20035;-88
2022/06/28 01:20:26;;;;;;;3.10;0.20;;;13.30;99.90;;;;;;5076639;28;20020;-88
2022/06/28 01:22:54;;;;;;;1.10;0.08;;;15.90;99.90;;;;;;5076171;28;20092;-88
2022/06/28 01:25:21;;;;;;;1.70;0.30;;;15.80;99.90;;;;;;5076374;28;20039;-87
2022/06/28 01:27:47;;;;;;;1.52;0.13;;;;;;;;;;5097771;28;20030;-87
2022/06/28 01:30:14;;;;;;;2.03;0.20;;;13.10;99.90;;;;;;5080130;28;20028;-88
2022/06/28 01:32:40;;;;;;;0.98;0.00;;;13.10;99.90;;;;;;5079842;28;20009;-87
2022/06/28 01:35:07;;;;;;;2.45;0.00;;;13.10;99.90;;;;;;5098087;28;20034;-88
2022/06/28 01:37:33;;;;;;;2.88;0.00;;;;;;;;;;5097775;28;20024;-88
2022/06/28 01:39:59;;;;;;;2.25;0.17;;;13.00;99.90;;;;;;5098260;28;20028;-88
2022/06/28 01:42:29;;;;;;;2.08;0.00;;;15.70;99.90;;;;;;5097771;28;20392;-88
2022/06/28 01:44:56;;;;;;;1.35;0.10;;;13.00;99.90;;;;;;5098004;28;20099;-88
2022/06/28 01:47:25;;;;;;;2.03;0.00;;;13.00;99.90;;;;;;5079460;28;20027;-88
2022/06/28 01:49:54;;;;;;;3.38;0.08;;;15.70;99.90;;;;;;5079242;28;20029;-88
2022/06/28 01:52:20;;;;;;;2.83;0.17;;;10.60;99.90;;;;;;5079627;28;20073;-88
2022/06/28 01:54:46;;;;;;;8.02;0.52;;;14.00;99.90;;;;;;5079560;28;20107;-88
2022/06/28 01:57:12;;;;;;;2.28;0.00;;;12.90;99.90;;;;;;5079090;28;20117;-88
2022/06/28 01:59:39;;;;;;;3.90;0.50;;;12.90;99.90;;;;;;5100999;28;20031;-86
2022/06/28 02:02:05;;;;;;;2.97;0.00;;;13.00;99.90;;;;;;5081905;28;20478;-86
2022/06/28 02:04:31;;;;;;;2.78;0.20;;;13.00;99.90;;;;;;5099853;28;20063;-88
2022/06/28 02:06:58;;;;;;;6.65;1.27;;;14.70;99.90;;;;;;5097368;28;20024;-88
2022/06/28 02:09:24;;;;;;;2.72;0.00;;;13.00;99.90;;;;;;5079217;28;20048;-88
2022/06/28 02:11:51;;;;;;;1.77;0.20;;;13.00;99.90;;;;;;5078922;28;20017;-88
2022/06/28 02:14:17;;;;;;;4.30;0.10;;;13.80;99.90;;;;;;5097212;28;20031;-87
2022/06/28 02:16:43;;;;;;;0.60;0.00;;;13.00;99.90;;;;;;5079106;28;20017;-88
2022/06/28 02:19:09;;;;;;;4.18;0.00;;;;;;;;;;5079104;28;20031;-88
2022/06/28 02:21:36;;;;;;;2.30;0.40;;;12.90;99.90;;;;;;5078977;28;20028;-87
2022/06/28 02:24:03;;;;;;;3.33;0.13;;;12.80;99.90;;;;;;5097053;28;20024;-88
2022/06/28 02:26:29;;;;;;;3.40;0.35;;;12.80;99.90;;;;;;5079004;28;20062;-88
2022/06/28 02:28:55;;;;;;;5.97;0.00;;;;;;;;;;5096943;28;20079;-87
2022/06/28 02:31:21;;;;;;;2.22;0.00;;;12.80;99.90;;;;;;5078959;28;20023;-88
2022/06/28 02:33:47;;;;;;;4.00;0.00;;;16.00;99.90;;;;;;5079429;28;20477;-85
2022/06/28 02:41:40;;;;;;;0.93;0.00;;;12.60;99.90;;;;;;5097042;28;20177;-86
2022/06/28 02:44:06;;;;;;;1.08;0.10;;;12.60;99.90;;;;;;5078549;28;20066;-86
2022/06/28 02:46:32;;;;;;;1.65;0.00;;;12.50;99.90;;;;;;5078467;28;20188;-86
2022/06/28 02:48:57;;;;;;;4.90;0.13;;;12.50;99.90;;;;;;5078453;28;20028;-86
2022/06/28 02:51:26;;;;;;;0.88;0.08;;;14.70;99.90;;;;;;5078775;28;20024;-86
2022/06/28 02:53:52;;;;;;;3.10;0.28;;;12.50;99.90;;;;;;5078156;28;20499;-87
2022/06/28 02:56:18;;;;;;;0.10;0.00;;;12.60;99.90;;;;;;5078418;28;20027;-86
2022/06/28 02:58:44;;;;;;;4.78;0.00;;;12.70;99.90;;;;;;5078238;28;20024;-86
2022/06/28 03:01:10;;;;;;;1.90;0.00;;;12.60;99.90;;;;;;5096555;28;20024;-86
2022/06/28 03:03:35;;;;;;;7.95;0.30;;;13.10;99.90;;;;;;5096593;28;20028;-86
2022/06/28 03:06:01;;;;;;;2.60;0.20;;;12.50;99.90;;;;;;5077928;28;20134;-86
2022/06/28 03:08:27;;;;;;;5.43;0.20;;;13.10;99.90;;;;;;5077827;28;20028;-86
2022/06/28 03:10:53;;;;;;;2.33;0.20;;;12.40;99.90;;;;;;5077874;28;20035;-88
2022/06/28 03:13:18;;;;;;;1.02;0.00;;;12.30;99.90;;;;;;5077945;28;20058;-88
2022/06/28 03:15:44;;;;;;;4.63;0.40;;;12.50;99.90;;;;;;5077810;28;20021;-86
2022/06/28 03:18:09;;;;;;;3.20;0.28;;;12.10;99.90;;;;;;5096014;28;20449;-86
2022/06/28 03:20:35;;;;;;;3.83;0.08;;;12.60;99.90;;;;;;5077794;28;20032;-86
2022/06/28 03:23:01;;;;;;;3.30;0.00;;;13.40;99.90;;;;;;5095967;28;20023;-86
2022/06/28 03:25:26;;;;;;;1.65;0.00;;;12.10;99.90;;;;;;5077570;28;20038;-86
2022/06/28 03:27:52;;;;;;;3.30;0.00;;;;;;;;;;5096016;28;20449;-86
2022/06/28 03:30:18;;;;;;;2.65;0.10;;;12.20;99.90;;;;;;5096189;28;20469;-87
2022/06/28 03:32:44;;;;;;;1.40;0.00;;;12.90;99.90;;;;;;5077484;28;20024;-86
2022/06/28 03:35:10;;;;;;;0.52;0.00;;;;;;;;;;5077375;28;20020;-86
2022/06/28 03:37:36;;;;;;;3.42;0.00;;;12.20;99.90;;;;;;5077384;28;20032;-86
2022/06/28 03:40:03;;;;;;;4.28;0.17;;;14.20;99.90;;;;;;5095478;28;20465;-88
2022/06/28 03:42:28;;;;;;;0.95;0.17;;;12.20;99.90;;;;;;5077217;28;20035;-89
2022/06/28 03:44:54;;;;;;;2.65;0.00;;;12.80;99.90;;;;;;5077166;28;20028;-88
2022/06/28 03:47:20;;;;;;;2.30;0.20;;;12.00;99.90;;;;;;5076763;28;20055;-88
2022/06/28 03:49:47;;;;;;;1.75;0.38;;;12.10;99.90;;;;;;5076611;28;20023;-88
2022/06/28 03:52:13;;;;;;;1.80;0.00;;;15.00;99.90;;;;;;5076893;28;20024;-88
2022/06/28 03:54:39;;;;;;;2.90;0.30;;;12.10;99.90;;;;;;5076936;28;20434;-88
2022/06/28 03:57:08;;;;;;;1.70;0.00;;;15.20;99.90;;;;;;5095194;28;20115;-88
2022/06/28 03:59:33;;;;;;;0.55;0.00;;;11.90;99.90;;;;;;5076640;28;20491;-88
2022/06/28 04:01:59;;;;;;;1.88;0.30;;;12.40;99.90;;;;;;5076602;28;20019;-88
2022/06/28 04:04:25;;;;;;;1.77;0.00;;;12.60;99.90;;;;;;5076879;28;20109;-88
2022/06/28 04:06:50;;;;;;;3.85;0.08;;;13.70;99.90;;;;;;5076792;28;20488;-88
2022/06/28 04:09:17;;;;;;;1.67;0.10;;;;;;;;;;5094767;28;20088;-88
2022/06/28 04:11:43;;;;;;;1.80;0.10;;;;;;;;;;5076974;28;20024;-88
2022/06/28 04:14:13;;;;;;;5.18;0.22;;;12.30;99.90;;;;;;5077128;28;20115;-88
2022/06/28 04:16:42;;;;;;;3.15;0.20;;;12.50;99.90;;;;;;5077845;28;20052;-88
2022/06/28 04:19:09;;;;;;;2.97;0.70;;;12.40;99.90;;;;;;5094666;28;20461;-88
2022/06/28 04:21:34;;;;;;;3.78;0.10;;;15.30;99.90;;;;;;5077217;28;20384;-88
2022/06/28 04:24:00;;;;;;;4.78;0.22;;;12.60;99.90;;;;;;5094809;28;20027;-88
2022/06/28 04:26:26;;;;;;;4.90;0.03;;;16.10;99.90;;;;;;5076459;28;20039;-88
2022/06/28 04:28:51;;;;;;;2.50;0.00;;;12.70;99.90;;;;;;5094678;28;20020;-88
2022/06/28 04:31:17;;;;;;;14.55;1.08;;;14.90;99.90;;;;;;5094532;28;20024;-88
2022/06/28 04:33:43;;;;;;;6.05;0.00;;;;;;;;;;5094693;28;20160;-89
2022/06/28 04:36:09;;;;;;;1.60;0.00;;;12.90;99.90;;;;;;5094681;28;20488;-88
2022/06/28 04:38:35;;;;;;;23.65;0.90;;;13.10;99.90;;;;;;5076512;28;20028;-88
2022/06/28 04:41:01;;;;;;;3.75;0.05;;;14.10;99.90;;;;;;5076554;28;20016;-88
2022/06/28 04:43:26;;;;;;;3.92;0.30;;;13.20;99.90;;;;;;5076652;28;20118;-89
2022/06/28 04:45:52;;;;;;;3.65;0.00;;;13.40;99.90;;;;;;5076587;28;20069;-87
2022/06/28 04:48:18;;;;;;;8.35;0.47;;;13.60;99.90;;;;;;5076580;28;20024;-87
2022/06/28 04:50:43;;;;;;;4.97;0.10;;;15.20;99.90;;;;;;5076064;28;20099;-88
2022/06/28 04:53:09;;;;;;;2.47;0.38;;;16.10;99.90;;;;;;5076349;28;20115;-88
2022/06/28 04:55:35;;;;;;;7.28;0.75;;;14.00;99.90;;;;;;5095160;28;20044;-87
2022/06/28 04:58:01;;;;;;;6.10;0.52;;;;;;;;;;5076704;28;20024;-87
2022/06/28 05:00:28;;;;;;;4.50;0.80;;;14.20;99.90;;;;;;5076459;28;20549;-88
2022/06/28 05:02:54;;;;;;;2.63;0.10;;;15.00;99.90;;;;;;5080513;28;20024;-88
2022/06/28 05:05:20;;;;;;;2.85;0.20;;;14.30;99.90;;;;;;5080736;28;20023;-87
2022/06/28 05:07:45;;;;;;;8.20;0.57;;;17.20;99.90;;;;;;5081095;28;20035;-87
2022/06/28 05:10:11;;;;;;;5.25;0.30;;;16.70;99.90;;;;;;5081008;28;20017;-87
2022/06/28 05:12:37;;;;;;;7.25;0.52;;;14.40;99.90;;;;;;5080108;28;20043;-88
2022/06/28 05:15:03;;;;;;;7.28;0.30;;;;;;;;;;5080422;28;20031;-87
2022/06/28 05:17:29;;;;;;;8.10;0.40;;;;;;;;;;5098117;28;20027;-89
2022/06/28 05:19:55;;;;;;;7.55;0.38;;;14.80;99.90;;;;;;5081047;28;20107;-88
2022/06/28 05:22:20;;;;;;;11.05;0.90;;;14.80;99.90;;;;;;5079889;28;20024;-88
2022/06/28 05:24:46;;;;;;;11.25;0.65;;;14.90;99.90;;;;;;5080378;28;20492;-87
2022/06/28 05:27:12;;;;;;;5.13;0.13;;;16.70;99.90;;;;;;5079851;28;20024;-87
2022/06/28 05:29:37;;;;;;;9.90;0.55;;;15.00;99.90;;;;;;5098518;28;20457;-90
2022/06/28 05:32:03;;;;;;;2.17;0.00;;;15.10;99.90;;;;;;5097810;28;20515;-88
2022/06/28 05:34:29;;;;;;;4.05;0.28;;;15.20;99.90;;;;;;5098111;28;20013;-88
2022/06/28 05:36:55;;;;;;;4.63;0.00;;;15.60;99.90;;;;;;5079996;28;20024;-88
2022/06/28 05:39:22;;;;;;;7.00;0.10;;;16.00;99.90;;;;;;5080631;28;20373;-89
2022/06/28 05:41:48;;;;;;;3.42;0.50;;;16.40;99.90;;;;;;5079493;28;20473;-88
2022/06/28 05:44:14;;;;;;;5.78;0.52;;;16.30;99.90;;;;;;5097705;28;20068;-88
2022/06/28 05:46:40;;;;;;;5.03;0.68;;;16.50;99.90;;;;;;5079258;28;20016;-88
2022/06/28 05:49:07;;;;;;;4.68;0.20;;;16.40;99.90;;;;;;5097645;28;20449;-88
2022/06/28 05:51:33;;;;;;;6.15;0.40;;;16.30;99.90;;;;;;5079536;28;20065;-88
2022/06/28 05:53:58;;;;;;;5.15;0.52;;;16.30;99.90;;;;;;5080228;28;20115;-85
2022/06/28 05:56:24;;;;;;;4.13;0.08;;;16.30;99.90;;;;;;5100236;28;20385;-86
2022/06/28 05:58:50;;;;;;;6.88;0.57;;;17.60;99.90;;;;;;5081682;28;20028;-86
2022/06/28 06:01:15;;;;;;;3.03;0.08;;;16.20;99.90;;;;;;5080641;28;20027;-86
2022/06/28 06:03:41;;;;;;;8.90;0.85;;;16.30;99.90;;;;;;5080457;28;20099;-86
2022/06/28 06:06:08;;;;;;;11.43;0.40;;;16.30;99.90;;;;;;5099688;28;20022;-88
2022/06/28 06:08:35;;;;;;;5.90;0.05;;;16.40;99.90;;;;;;5098924;28;20027;-85
2022/06/28 06:11:01;;;;;;;4.97;0.50;;;;;;;;;;5080813;28;20024;-86
2022/06/28 06:13:27;;;;;;;5.85;0.40;;;16.30;99.90;;;;;;5098411;28;20024;-86
2022/06/28 06:15:59;;;;;;;9.98;0.75;;;16.40;99.90;;;;;;5080597;28;20077;-86
2022/06/28 06:18:25;;;;;;;6.10;0.55;;;16.50;99.90;;;;;;5102987;28;20024;-86
2022/06/28 06:20:51;;;;;;;9.60;0.68;;;;;;;;;;5085966;28;20020;-86
2022/06/28 06:23:16;;;;;;;6.32;1.02;;;16.70;99.90;;;;;;5102169;28;20074;-87
2022/06/28 06:25:42;;;;;;;6.00;0.75;;;16.80;99.90;;;;;;5081616;28;20028;-86
2022/06/28 06:28:07;;;;;;;10.25;1.15;;;16.90;99.90;;;;;;5081544;28;20028;-87
2022/06/28 06:30:33;;;;;;;2.92;0.32;;;16.80;99.90;;;;;;5081989;28;20020;-86
2022/06/28 06:33:00;;;;;;;9.70;0.38;;;16.80;99.90;;;;;;5100430;28;20022;-87
2022/06/28 06:35:26;;;;;;;6.70;0.30;;;16.70;99.90;;;;;;5081602;28;20024;-86
2022/06/28 06:37:53;;;;;;;7.45;0.73;;;17.00;99.90;;;;;;5083571;28;20472;-86
2022/06/28 06:40:19;;;;;;;3.85;0.20;;;17.30;99.90;;;;;;5080422;28;20051;-86
2022/06/28 06:42:45;;;;;;;5.35;0.43;;;17.20;99.90;;;;;;5098676;28;20048;-86
2022/06/28 06:45:12;;;;;;;7.35;0.30;;;20.40;99.90;;;;;;5080469;28;20031;-86
2022/06/28 06:47:38;;;;;;;10.90;1.38;;;17.30;99.90;;;;;;5098487;28;20460;-87
2022/06/28 06:50:08;;;;;;;8.80;1.30;;;17.40;99.90;;;;;;5079402;28;20027;-87
2022/06/28 06:52:35;;;;;;;6.45;0.80;;;17.40;99.90;;;;;;5097361;28;20074;-86
2022/06/28 06:55:01;;;;;;;7.30;0.38;;;17.40;99.90;;;;;;5097473;28;20028;-86
2022/06/28 06:57:26;;;;;;;6.82;1.05;;;17.70;99.90;;;;;;5079609;28;20088;-87
2022/06/28 06:59:52;;;;;;;9.02;0.30;;;20.40;99.90;;;;;;5079364;28;20052;-86
2022/06/28 07:02:18;;;;;;;7.22;0.77;;;;;;;;;;5079555;28;20388;-87
2022/06/28 07:04:44;;;;;;;3.20;0.40;;;;;;;;;;5078706;28;20028;-87
2022/06/28 07:07:11;;;;;;;8.82;0.63;;;17.80;99.90;;;;;;5097086;28;20115;-86
2022/06/28 07:09:36;;;;;;;6.57;1.10;;;18.00;99.90;;;;;;5081069;28;20052;-87
2022/06/28 07:12:04;;;;;;;5.72;0.20;;;18.00;99.90;;;;;;5079968;28;20082;-88
2022/06/28 07:14:32;;;;;;;3.10;0.50;;;18.10;99.90;;;;;;5077773;28;20043;-87
2022/06/28 07:16:57;;;;;;;7.72;1.08;;;21.10;99.90;;;;;;5077814;28;20024;-88
2022/06/28 07:19:23;;;;;;;6.75;0.60;;;18.10;99.90;;;;;;5077953;28;20032;-88
2022/06/28 07:21:49;;;;;;;7.78;1.10;;;18.20;99.90;;;;;;5096707;28;20020;-87
2022/06/28 07:24:17;;;;;;;9.02;0.60;;;18.10;99.90;;;;;;5095268;22;20028;-88
2022/06/28 07:26:43;;;;;;;13.20;1.15;;;18.40;99.90;;;;;;5096314;28;20102;-90
2022/06/28 07:29:08;;;;;;;5.03;0.70;;;18.30;99.90;;;;;;5096121;28;20024;-89
2022/06/28 07:31:34;;;;;;;6.72;0.13;;;18.50;99.90;;;;;;5078288;28;20016;-89
2022/06/28 07:34:00;;;;;;;7.88;0.43;;;21.00;99.90;;;;;;5096071;28;20020;-89
2022/06/28 07:36:26;;;;;;;1.73;0.10;;;18.70;99.90;;;;;;5095779;28;20022;-89
2022/06/28 07:38:54;;;;;;;4.43;0.30;;;18.60;99.90;;;;;;5077688;28;20028;-88
2022/06/28 07:41:20;;;;;;;6.23;0.43;;;18.90;99.90;;;;;;5095895;28;20534;-87
2022/06/28 07:43:45;;;;;;;7.63;0.20;;;19.00;99.90;;;;;;5077487;28;20065;-90
2022/06/28 07:46:11;;;;;;;9.27;0.55;;;19.10;99.90;;;;;;5077776;28;20019;-88
2022/06/28 07:48:37;;;;;;;3.60;0.25;;;19.80;99.90;;;;;;5077435;28;20016;-88
2022/06/28 07:53:46;;;;;;;3.35;0.32;;;18.40;99.90;;;;;;5095836;28;20031;-89
2022/06/28 07:56:12;;;;;;;2.72;0.20;;;18.70;99.90;;;;;;5077906;28;20024;-89
2022/06/28 07:58:39;;;;;;;2.90;0.00;;;18.80;99.90;;;;;;5077506;28;20104;-89
2022/06/28 08:01:07;;;;;;;7.43;0.60;;;19.00;99.90;;;;;;5077390;28;20023;-88
2022/06/28 08:03:32;;;;;;;6.57;0.10;;;19.10;99.90;;;;;;5077410;28;20028;-92
2022/06/28 08:05:58;;;;;;;2.13;0.00;;;20.60;99.90;;;;;;5077216;28;20028;-89
2022/06/28 08:08:24;;;;;;;4.80;0.38;;;19.40;99.90;;;;;;5078046;28;20020;-89
2022/06/28 08:10:50;;;;;;;3.50;0.30;;;19.50;99.90;;;;;;5076862;28;20068;-88
2022/06/28 08:13:16;;;;;;;4.47;0.10;;;;;;;;;;5095377;28;20020;-90
2022/06/28 08:15:42;;;;;;;5.30;0.10;;;;;;;;;;5076976;28;20107;-88
2022/06/28 08:18:13;;;;;;;3.50;0.00;;;19.70;99.90;;;;;;5078332;28;20051;-90
2022/06/28 08:20:38;;;;;;;4.00;0.10;;;19.90;99.90;;;;;;5077049;28;20107;-88
2022/06/28 08:23:04;;;;;;;2.72;0.10;;;20.00;99.90;;;;;;5077117;28;20092;-90
2022/06/28 08:25:33;;;;;;;4.60;0.00;;;20.00;99.90;;;;;;5077184;28;20097;-89
2022/06/28 08:27:59;;;;;;;4.15;0.10;;;20.10;99.90;;;;;;5076771;28;20492;-90
2022/06/28 08:30:26;;;;;;;4.05;0.10;;;20.10;99.90;;;;;;5094742;28;20020;-89
2022/06/28 08:32:52;;;;;;;0.90;0.00;;;23.40;99.90;;;;;;5094790;28;20423;-90
2022/06/28 08:35:19;;;;;;;2.97;0.25;;;20.20;99.90;;;;;;5076893;28;20023;-90
2022/06/28 08:37:46;;;;;;;7.63;0.47;;;20.00;99.90;;;;;;5077508;28;20024;-91
2022/06/28 08:40:11;;;;;;;9.57;0.65;;;20.10;99.90;;;;;;5095048;28;20028;-89
2022/06/28 08:42:46;;;;;;;1.70;0.00;;;20.20;99.90;;;;;;5095036;28;20024;-90
2022/06/28 08:45:12;;;;;;;3.03;0.32;;;20.30;99.90;;;;;;5095526;28;20080;-89
2022/06/28 08:47:39;;;;;;;4.28;0.35;;;20.30;99.90;;;;;;5095492;28;20054;-87
2022/06/28 08:50:13;;;;;;;7.20;0.43;;;20.30;99.90;;;;;;5095086;28;20020;-87
2022/06/28 08:52:41;;;;;;;9.13;0.28;;;;;;;;;;5077210;28;20027;-89
2022/06/28 08:55:08;;;;;;;3.08;0.82;;;20.40;99.90;;;;;;5096824;28;20107;-88
2022/06/28 08:57:35;;;;;;;4.32;0.47;;;20.60;99.90;;;;;;5095022;28;20509;-89
2022/06/28 09:00:05;;;;;;;4.20;0.85;;;20.80;99.90;;;;;;5076695;28;20149;-89
2022/06/28 09:02:31;;;;;;;6.60;0.10;;;20.90;99.90;;;;;;5077002;28;20024;-89
2022/06/28 09:05:00;;;;;;;3.40;0.13;;;21.10;99.90;;;;;;5076380;28;20024;-90
2022/06/28 09:07:27;;;;;;;2.53;0.08;;;21.20;99.90;;;;;;5076450;28;20085;-90
2022/06/28 09:09:53;;;;;;;4.53;0.35;;;21.20;99.90;;;;;;5076999;28;20538;-89
2022/06/28 09:12:20;;;;;;;3.65;0.32;;;21.30;98.00;;;;;;5076653;28;20017;-89
2022/06/28 09:14:49;;;;;;;2.50;0.20;;;21.10;99.10;;;;;;5095908;28;20039;-91
2022/06/28 09:17:27;;;;;;;4.88;0.32;;;21.20;98.40;;;;;;5077025;28;20044;-90
2022/06/28 09:19:59;;;;;;;1.42;0.00;;;21.30;98.50;;;;;;5077403;28;20111;-87
2022/06/28 09:22:32;;;;;;;2.40;0.22;;;21.30;95.70;;;;;;5096653;28;20027;-87
2022/06/28 09:24:59;;;;;;;3.38;0.10;;;21.20;96.80;;;;;;5077222;28;20032;-91
2022/06/28 09:27:34;;;;;;;4.43;0.32;;;21.70;97.30;;;;;;5076356;28;20043;-89
2022/06/28 09:30:04;;;;;;;2.95;0.40;;;21.10;96.30;;;;;;5076301;28;20020;-90
2022/06/28 09:32:31;;;;;;;3.30;0.28;;;21.20;96.50;;;;;;5076312;28;20032;-90
2022/06/28 09:35:05;;;;;;;4.30;0.28;;;21.10;98.60;;;;;;5076575;28;20016;-89
2022/06/28 09:37:45;;;;;;;2.40;0.00;;;21.40;97.80;;;;;;5076914;28;20028;-87
2022/06/28 09:40:25;;;;;;;0.45;0.00;;;21.50;96.50;;;;;;5081903;28;20123;-90
2022/06/28 09:43:08;;;;;;;2.70;0.00;;;18.10;96.10;;;;;;5082793;28;20092;-89
2022/06/28 09:45:35;;;;;;;5.68;0.30;;;24.80;94.40;;;;;;5099319;28;20084;-86
2022/06/28 09:48:02;;;;;;;2.20;0.40;;;21.80;93.30;;;;;;5082941;28;20024;-85
2022/06/28 09:50:34;;;;;;;1.70;0.00;;;21.90;94.70;;;;;;5084837;28;20016;-87
2022/06/28 09:53:03;;;;;;;3.58;0.28;;;22.00;91.80;;;;;;5079394;28;20059;-89
2022/06/28 09:55:31;;;;;;;8.15;0.35;;;23.20;92.40;;;;;;5080423;28;20442;-90
2022/06/28 09:57:58;;;;;;;2.17;0.07;;;21.90;89.00;;;;;;5081546;28;20024;-87
2022/06/28 10:00:24;;;;;;;1.45;0.00;;;22.40;92.90;;;;;;5080654;28;20508;-89
2022/06/28 10:02:58;;;;;;;0.60;0.00;;;22.00;91.60;;;;;;5098134;28;20032;-91
2022/06/28 10:05:26;;;;;;;1.73;0.10;;;22.30;92.70;;;;;;5078938;28;20024;-91
2022/06/28 10:07:53;;;;;;;6.18;0.00;;;22.40;84.10;;;;;;5080599;28;20478;-88
2022/06/28 10:10:22;;;;;;;6.13;0.55;;;22.40;82.20;;;;;;5080661;28;20485;-87
2022/06/28 10:15:50;;;;;;;1.88;0.00;;;22.30;78.30;;;;;;5099467;28;19950;-90
2022/06/28 10:18:18;;;;;;;7.30;0.25;;;21.50;79.50;;;;;;5099049;28;20024;-91
2022/06/28 10:20:44;;;;;;;2.50;0.15;;;22.20;83.70;;;;;;5081986;28;20020;-90
2022/06/28 10:23:23;;;;;;;2.17;0.00;;;22.30;82.70;;;;;;5098196;28;20455;-90
2022/06/28 10:26:09;;;;;;;4.35;0.30;;;22.40;82.30;;;;;;5098064;28;20036;-89
2022/06/28 10:28:40;;;;;;;1.20;0.10;;;23.50;81.30;;;;;;5079803;28;20024;-89
2022/06/28 10:31:24;;;;;;;1.23;0.22;;;22.10;78.90;;;;;;5078428;28;20598;-92
2022/06/28 10:33:52;;;;;;;2.58;0.08;;;22.30;75.80;;;;;;5079100;28;20065;-90
2022/06/28 10:36:19;;;;;;;3.80;0.52;;;22.70;76.40;;;;;;5079462;28;20085;-91
2022/06/28 10:39:07;;;;;;;1.67;0.00;;;22.10;79.70;;;;;;5079188;28;20583;-89
2022/06/28 10:41:52;;;;;;;3.00;0.47;;;22.10;75.00;;;;;;5097136;28;20024;-91
2022/06/28 10:44:20;;;;;;;2.08;0.00;;;22.30;82.00;;;;;;5096718;28;20028;-90
2022/06/28 10:47:01;;;;;;;1.67;0.13;;;22.50;76.90;;;;;;5097016;28;20031;-90
2022/06/28 10:49:44;;;;;;;1.13;0.22;;;22.50;76.90;;;;;;5079382;28;20557;-90
2022/06/28 10:52:17;;;;;;;1.67;0.30;;;22.60;73.40;;;;;;5079427;28;20027;-91
2022/06/28 10:54:52;;;;;;;1.48;0.00;;;22.80;77.40;;;;;;5079097;28;20020;-89
2022/06/28 10:57:27;;;;;;;2.65;0.00;;;22.80;71.80;;;;;;5078615;28;20028;-89
2022/06/28 11:00:04;;;;;;;2.65;0.00;;;22.70;71.90;;;;;;5095391;28;20028;-90
2022/06/28 11:02:49;;;;;;;1.48;0.15;;;22.90;77.20;;;;;;5078608;28;20373;-90
2022/06/28 11:05:16;;;;;;;2.15;0.00;;;23.10;77.10;;;;;;5078258;28;20093;-89
2022/06/28 11:07:59;;;;;;;4.00;0.08;;;23.10;71.80;;;;;;5078822;28;20031;-88
2022/06/28 11:10:25;;;;;;;2.10;0.00;;;23.70;71.00;;;;;;5078154;28;20459;-89
2022/06/28 11:12:51;;;;;;;4.97;0.35;;;23.30;67.60;;;;;;5077828;28;20062;-89
2022/06/28 11:15:35;;;;;;;1.45;0.10;;;23.30;71.60;;;;;;5096660;28;20048;-87
2022/06/28 11:18:01;;;;;;;1.45;0.00;;;23.10;66.10;;;;;;5098930;28;20032;-89
2022/06/28 11:20:29;;;;;;;0.70;0.00;;;22.70;71.00;;;;;;5081534;28;20028;-89
2022/06/28 11:22:55;;;;;;;5.35;0.00;;;22.90;75.40;;;;;;5096609;28;20013;-88
2022/06/28 11:25:23;;;;;;;3.50;0.05;;;23.10;70.80;;;;;;5077982;28;20058;-89
2022/06/28 11:27:52;;;;;;;1.02;0.10;;;25.30;74.10;;;;;;5096181;28;20622;-90
2022/06/28 11:30:23;;;;;;;0.88;0.00;;;23.70;68.50;;;;;;5077762;28;20047;-88
2022/06/28 11:32:50;;;;;;;0.75;0.00;;;23.60;69.30;;;;;;5077831;28;20069;-88
2022/06/28 11:35:23;;;;;;;0.40;0.10;;;23.90;69.10;;;;;;5096184;28;20020;-89
2022/06/28 11:37:53;;;;;;;2.15;0.25;;;24.30;66.00;;;;;;5096048;28;20024;-88
2022/06/28 11:40:27;;;;;;;0.10;0.00;;;24.40;69.40;;;;;;5078350;28;20028;-89
2022/06/28 11:43:12;;;;;;;1.00;0.10;;;24.60;62.40;;;;;;5077033;28;20028;-89
2022/06/28 11:45:47;;;;;;;0.90;0.13;;;24.50;65.00;;;;;;5078155;28;20031;-88
2022/06/28 11:48:31;;;;;;;3.13;0.00;;;24.80;68.50;;;;;;5077610;28;20389;-89
2022/06/28 11:50:58;;;;;;;2.22;0.00;;;25.00;65.30;;;;;;5078041;28;20016;-88
2022/06/28 11:53:27;;;;;;;0.17;0.00;;;25.40;68.30;;;;;;5077412;28;20016;-90
2022/06/28 11:55:55;;;;;;;0.98;0.00;;;25.50;60.90;;;;;;5096421;28;20102;-88
2022/06/28 11:58:25;;;;;;;0.57;0.25;;;25.70;66.90;;;;;;5077683;28;20507;-88
2022/06/28 12:01:05;;;;;;;3.83;0.30;;;25.60;62.30;;;;;;5095450;28;20039;-89
2022/06/28 12:03:33;;;;;;;0.10;0.00;;;25.40;59.50;;;;;;5078941;28;20034;-88
2022/06/28 12:06:01;;;;;;;0.25;0.00;;;25.30;59.10;;;;;;5080788;28;20358;-88
2022/06/28 12:08:51;;;;;;;;;;;25.10;59.70;;;;;;5097055;28;20373;-88
2022/06/28 12:11:32;;;;;;;4.40;0.10;;;25.40;61.60;;;;;;5077919;28;19904;-89
2022/06/28 12:14:02;;;;;;;0.50;0.00;;;25.60;60.10;;;;;;5077313;28;20024;-89
2022/06/28 12:16:32;;;;;;;;;;;26.00;61.30;;;;;;5077002;28;20028;-91
2022/06/28 12:19:05;;;;;;;0.40;0.00;;;26.10;59.20;;;;;;5097846;28;19911;-89
2022/06/28 12:21:58;;;;;;;1.52;0.28;;;26.20;63.20;;;;;;5077968;28;20024;-90
2022/06/28 12:24:36;;;;;;;1.73;0.10;;;26.60;59.80;;;;;;5078342;28;20107;-90
2022/06/28 12:27:02;;;;;;;1.13;0.00;;;26.70;58.90;;;;;;5077992;28;20056;-89
2022/06/28 12:29:31;;;;;;;1.00;0.00;;;26.80;57.30;;;;;;5077606;28;20039;-92
2022/06/28 12:31:57;;;;;;;2.72;0.00;;;26.70;59.30;;;;;;5077873;28;20046;-89
2022/06/28 12:34:22;;;;;;;3.10;0.00;;;26.60;57.80;;;;;;5077549;28;20373;-90
2022/06/28 12:36:48;;;;;;;0.30;0.00;;;26.40;56.00;;;;;;5078424;28;20380;-90
2022/06/28 12:39:13;;;;;;;1.27;0.05;;;26.60;58.90;;;;;;5079001;28;20032;-90
2022/06/28 12:41:44;;;;;;;2.53;0.00;;;26.30;58.70;;;;;;5080651;28;20091;-90
2022/06/28 12:44:10;;;;;;;2.13;0.00;;;26.50;60.40;;;;;;5081486;28;20051;-90
2022/06/28 12:46:36;;;;;;;2.17;0.30;;;26.50;63.20;;;;;;5079241;28;20038;-90
2022/06/28 12:49:02;;;;;;;1.23;0.00;;;26.80;57.30;;;;;;5080180;28;20120;-90
2022/06/28 12:51:28;;;;;;;2.17;0.00;;;26.90;57.50;;;;;;5095232;28;20439;-90
2022/06/28 12:53:54;;;;;;;2.28;0.35;;;27.30;57.90;;;;;;5080002;28;20017;-90
2022/06/28 12:56:20;;;;;;;3.88;0.30;;;27.80;56.00;;;;;;5077825;28;20024;-89
2022/06/28 12:58:48;;;;;;;0.63;0.00;;;26.80;55.50;;;;;;5096000;28;20073;-89
2022/06/28 13:01:14;;;;;;;1.70;0.00;;;27.00;56.80;;;;;;5096582;28;20028;-90
2022/06/28 13:03:41;;;;;;;0.45;0.00;;;26.90;60.70;;;;;;5078130;28;20020;-90
2022/06/28 13:06:08;;;;;;;2.22;0.00;;;27.40;58.70;;;;;;5095314;28;20044;-90
2022/06/28 13:08:34;;;;;;;1.58;0.00;;;27.10;57.00;;;;;;5076860;28;20028;-90
2022/06/28 13:11:00;;;;;;;1.20;0.25;;;26.60;56.70;;;;;;5077417;28;20468;-89